sensor_id;sensor_type;location;lat;lon;timestamp;pressure;altitude;pressure_sealevel;temperature;humidity
46015;BME280;36844;51.898;-0.874;2024-03-23T00:52:10;100316.25;;;18.23;
46015;BME280;36844;51.898;-0.874;2024-03-23T00:54:35;100315.88;;;18.18;
46015;BME280;36844;51.898;-0.874;2024-03-23T00:57:00;100303.97;;;18.15;
46015;BME280;36844;51.898;-0.874;2024-03-23T00:59:25;100270.31;;;17.93;
46015;BME280;36844;51.898;-0.874;2024-03-23T01:01:54;100291.72;;;18.07;
46015;BME280;36844;51.898;-0.874;2024-03-23T01:04:20;100305.91;;;18.15;
46015;BME280;36844;51.898;-0.874;2024-03-23T01:06:45;100286.38;;;18.04;
46015;BME280;36844;51.898;-0.874;2024-03-23T01:09:11;100296.34;;;18.07;
46015;BME280;36844;51.898;-0.874;2024-03-23T01:11:36;100296.34;;;18.07;
46015;BME280;36844;51.898;-0.874;2024-03-23T01:14:02;100292.91;;;18.03;
46015;BME280;36844;51.898;-0.874;2024-03-23T01:16:28;100286.84;;;17.95;
46015;BME280;36844;51.898;-0.874;2024-03-23T01:18:53;100284.53;;;17.97;
46015;BME280;36844;51.898;-0.874;2024-03-23T01:21:18;100287.97;;;17.98;
46015;BME280;36844;51.898;-0.874;2024-03-23T01:23:44;100272.69;;;17.84;
46015;BME280;36844;51.898;-0.874;2024-03-23T01:26:09;100279.50;;;17.96;
46015;BME280;36844;51.898;-0.874;2024-03-23T01:28:35;100277.22;;;17.94;
46015;BME280;36844;51.898;-0.874;2024-03-23T01:31:00;100274.56;;;17.91;
46015;BME280;36844;51.898;-0.874;2024-03-23T01:33:25;100275.72;;;17.90;
46015;BME280;36844;51.898;-0.874;2024-03-23T01:35:50;100280.69;;;17.95;
46015;BME280;36844;51.898;-0.874;2024-03-23T01:38:16;100264.63;;;17.84;
46015;BME280;36844;51.898;-0.874;2024-03-23T01:40:41;100260.72;;;17.89;
46015;BME280;36844;51.898;-0.874;2024-03-23T01:43:07;100271.84;;;17.91;
46015;BME280;36844;51.898;-0.874;2024-03-23T01:45:33;100261.94;;;17.84;
46015;BME280;36844;51.898;-0.874;2024-03-23T01:47:59;100255.41;;;17.82;
46015;BME280;36844;51.898;-0.874;2024-03-23T01:50:25;100248.88;;;17.79;
46015;BME280;36844;51.898;-0.874;2024-03-23T01:52:51;100263.03;;;17.87;
46015;BME280;36844;51.898;-0.874;2024-03-23T01:55:17;100264.22;;;17.86;
46015;BME280;36844;51.898;-0.874;2024-03-23T01:57:42;100237.41;;;17.68;
46015;BME280;36844;51.898;-0.874;2024-03-23T02:00:08;100258.88;;;17.82;
46015;BME280;36844;51.898;-0.874;2024-03-23T02:02:35;100258.09;;;17.82;
46015;BME280;36844;51.898;-0.874;2024-03-23T02:05:00;100230.84;;;17.72;
46015;BME280;36844;51.898;-0.874;2024-03-23T02:07:26;100242.75;;;17.75;
46015;BME280;36844;51.898;-0.874;2024-03-23T02:09:52;100250.44;;;17.77;
46015;BME280;36844;51.898;-0.874;2024-03-23T02:12:18;100240.88;;;17.68;
46015;BME280;36844;51.898;-0.874;2024-03-23T02:14:43;100225.94;;;17.60;
46015;BME280;36844;51.898;-0.874;2024-03-23T02:17:09;100241.25;;;17.67;
46015;BME280;36844;51.898;-0.874;2024-03-23T02:19:34;100223.28;;;17.57;
46015;BME280;36844;51.898;-0.874;2024-03-23T02:21:59;100224.06;;;17.57;
46015;BME280;36844;51.898;-0.874;2024-03-23T02:24:24;100226.34;;;17.59;
46015;BME280;36844;51.898;-0.874;2024-03-23T02:26:50;100247.41;;;17.67;
46015;BME280;36844;51.898;-0.874;2024-03-23T02:29:15;100237.84;;;17.59;
46015;BME280;36844;51.898;-0.874;2024-03-23T02:31:40;100227.19;;;17.49;
46015;BME280;36844;51.898;-0.874;2024-03-23T02:34:06;100234.44;;;17.55;
46015;BME280;36844;51.898;-0.874;2024-03-23T02:36:31;100248.63;;;17.59;
46015;BME280;36844;51.898;-0.874;2024-03-23T02:38:56;100230.66;;;17.49;
46015;BME280;36844;51.898;-0.874;2024-03-23T02:41:22;100236.78;;;17.53;
46015;BME280;36844;51.898;-0.874;2024-03-23T02:43:51;100238.63;;;17.60;
46015;BME280;36844;51.898;-0.874;2024-03-23T02:46:16;100212.22;;;17.44;
46015;BME280;36844;51.898;-0.874;2024-03-23T02:48:42;100203.78;;;17.42;
46015;BME280;36844;51.898;-0.874;2024-03-23T02:51:08;100219.81;;;17.56;
46015;BME280;36844;51.898;-0.874;2024-03-23T02:53:33;100207.66;;;17.38;
46015;BME280;36844;51.898;-0.874;2024-03-23T02:55:58;100219.50;;;17.44;
46015;BME280;36844;51.898;-0.874;2024-03-23T02:58:24;100219.53;;;17.47;
46015;BME280;36844;51.898;-0.874;2024-03-23T03:00:49;100204.63;;;17.36;
46015;BME280;36844;51.898;-0.874;2024-03-23T03:03:15;100219.94;;;17.42;
46015;BME280;36844;51.898;-0.874;2024-03-23T03:05:40;100216.09;;;17.43;
46015;BME280;36844;51.898;-0.874;2024-03-23T03:08:05;100219.50;;;17.44;
46015;BME280;36844;51.898;-0.874;2024-03-23T03:10:31;100205.34;;;17.36;
46015;BME280;36844;51.898;-0.874;2024-03-23T03:13:00;100224.19;;;17.43;
46015;BME280;36844;51.898;-0.874;2024-03-23T03:15:25;100205.34;;;17.36;
46015;BME280;36844;51.898;-0.874;2024-03-23T03:17:50;100211.47;;;17.40;
46015;BME280;36844;51.898;-0.874;2024-03-23T03:20:16;100200.00;;;17.29;
46015;BME280;36844;51.898;-0.874;2024-03-23T03:22:43;100224.91;;;17.40;
46015;BME280;36844;51.898;-0.874;2024-03-23T03:25:08;100217.28;;;17.39;
46015;BME280;36844;51.898;-0.874;2024-03-23T03:27:33;100222.22;;;17.40;
46015;BME280;36844;51.898;-0.874;2024-03-23T03:29:59;100224.19;;;17.40;
46015;BME280;36844;51.898;-0.874;2024-03-23T03:32:28;100224.59;;;17.38;
46015;BME280;36844;51.898;-0.874;2024-03-23T03:34:54;100185.13;;;17.14;
46015;BME280;36844;51.898;-0.874;2024-03-23T03:37:19;100208.50;;;17.31;
46015;BME280;36844;51.898;-0.874;2024-03-23T03:39:44;100176.31;;;17.10;
46015;BME280;36844;51.898;-0.874;2024-03-23T03:42:09;100208.56;;;17.24;
46015;BME280;36844;51.898;-0.874;2024-03-23T03:44:35;100128.13;;;16.78;
46015;BME280;36844;51.898;-0.874;2024-03-23T03:47:02;100203.91;;;17.28;
46015;BME280;36844;51.898;-0.874;2024-03-23T03:49:27;100167.97;;;17.01;
46015;BME280;36844;51.898;-0.874;2024-03-23T03:51:52;100204.66;;;17.25;
46015;BME280;36844;51.898;-0.874;2024-03-23T03:54:18;100198.56;;;17.21;
46015;BME280;36844;51.898;-0.874;2024-03-23T03:56:43;100185.13;;;17.14;
46015;BME280;36844;51.898;-0.874;2024-03-23T03:59:08;100195.53;;;17.16;
46015;BME280;36844;51.898;-0.874;2024-03-23T04:01:34;100203.16;;;17.24;
46015;BME280;36844;51.898;-0.874;2024-03-23T04:04:00;100208.56;;;17.24;
46015;BME280;36844;51.898;-0.874;2024-03-23T04:06:25;100200.09;;;17.19;
46015;BME280;36844;51.898;-0.874;2024-03-23T04:08:51;100197.84;;;17.14;
46015;BME280;36844;51.898;-0.874;2024-03-23T04:11:16;100166.09;;;16.91;
46015;BME280;36844;51.898;-0.874;2024-03-23T04:13:41;100187.84;;;17.11;
46015;BME280;36844;51.898;-0.874;2024-03-23T04:16:07;100177.84;;;17.11;
46015;BME280;36844;51.898;-0.874;2024-03-23T04:18:32;100188.63;;;17.11;
46015;BME280;36844;51.898;-0.874;2024-03-23T04:20:57;100182.47;;;17.11;
46015;BME280;36844;51.898;-0.874;2024-03-23T04:23:23;100196.63;;;17.18;
46015;BME280;36844;51.898;-0.874;2024-03-23T04:25:48;100181.34;;;17.08;
46015;BME280;36844;51.898;-0.874;2024-03-23T04:28:13;100172.53;;;17.04;
46015;BME280;36844;51.898;-0.874;2024-03-23T04:30:39;100183.25;;;17.11;
46015;BME280;36844;51.898;-0.874;2024-03-23T04:33:04;100162.16;;;17.03;
46015;BME280;36844;51.898;-0.874;2024-03-23T04:35:30;100169.47;;;17.02;
46015;BME280;36844;51.898;-0.874;2024-03-23T04:37:55;100168.34;;;16.96;
46015;BME280;36844;51.898;-0.874;2024-03-23T04:40:21;100182.50;;;17.07;
46015;BME280;36844;51.898;-0.874;2024-03-23T04:42:46;100196.31;;;17.09;
46015;BME280;36844;51.898;-0.874;2024-03-23T04:45:12;100184.09;;;17.01;
46015;BME280;36844;51.898;-0.874;2024-03-23T04:47:38;100167.63;;;16.89;
46015;BME280;36844;51.898;-0.874;2024-03-23T04:50:04;100186.78;;;17.01;
46015;BME280;36844;51.898;-0.874;2024-03-23T04:52:29;100189.06;;;16.99;
46015;BME280;36844;51.898;-0.874;2024-03-23T04:54:55;100191.00;;;17.02;
46015;BME280;36844;51.898;-0.874;2024-03-23T04:57:20;100164.16;;;16.92;
46015;BME280;36844;51.898;-0.874;2024-03-23T04:59:45;100186.00;;;17.04;
46015;BME280;36844;51.898;-0.874;2024-03-23T05:02:10;100185.25;;;17.00;
46015;BME280;36844;51.898;-0.874;2024-03-23T05:04:36;100184.84;;;17.02;
46015;BME280;36844;51.898;-0.874;2024-03-23T05:07:02;100173.72;;;16.96;
46015;BME280;36844;51.898;-0.874;2024-03-23T05:09:28;100159.16;;;16.90;
46015;BME280;36844;51.898;-0.874;2024-03-23T05:11:56;100176.41;;;17.00;
46015;BME280;36844;51.898;-0.874;2024-03-23T05:14:21;100143.50;;;16.78;
46015;BME280;36844;51.898;-0.874;2024-03-23T05:16:46;100154.19;;;16.89;
46015;BME280;36844;51.898;-0.874;2024-03-23T05:19:12;100152.25;;;16.89;
46015;BME280;36844;51.898;-0.874;2024-03-23T05:21:37;100146.88;;;16.89;
46015;BME280;36844;51.898;-0.874;2024-03-23T05:24:02;100143.44;;;16.85;
46015;BME280;36844;51.898;-0.874;2024-03-23T05:26:28;100146.53;;;16.87;
46015;BME280;36844;51.898;-0.874;2024-03-23T05:28:54;100130.81;;;16.82;
46015;BME280;36844;51.898;-0.874;2024-03-23T05:31:23;100136.91;;;16.90;
46015;BME280;36844;51.898;-0.874;2024-03-23T05:33:49;100135.38;;;16.85;
46015;BME280;36844;51.898;-0.874;2024-03-23T05:36:14;100146.09;;;16.92;
46015;BME280;36844;51.898;-0.874;2024-03-23T05:38:39;100136.16;;;16.86;
46015;BME280;36844;51.898;-0.874;2024-03-23T05:41:05;100135.00;;;16.83;
46015;BME280;36844;51.898;-0.874;2024-03-23T05:43:30;100123.53;;;16.75;
46015;BME280;36844;51.898;-0.874;2024-03-23T05:45:57;100148.03;;;16.88;
46015;BME280;36844;51.898;-0.874;2024-03-23T05:48:22;100120.47;;;16.73;
46015;BME280;36844;51.898;-0.874;2024-03-23T05:50:49;100123.53;;;16.75;
46015;BME280;36844;51.898;-0.874;2024-03-23T05:53:15;100138.06;;;16.85;
46015;BME280;36844;51.898;-0.874;2024-03-23T05:55:41;100143.44;;;16.85;
46015;BME280;36844;51.898;-0.874;2024-03-23T05:58:06;100120.50;;;16.70;
46015;BME280;36844;51.898;-0.874;2024-03-23T06:00:31;100133.88;;;16.77;
46015;BME280;36844;51.898;-0.874;2024-03-23T06:02:57;100120.53;;;16.66;
46015;BME280;36844;51.898;-0.874;2024-03-23T06:05:22;100124.69;;;16.71;
46015;BME280;36844;51.898;-0.874;2024-03-23T06:07:49;100137.69;;;16.79;
46015;BME280;36844;51.898;-0.874;2024-03-23T06:10:15;100132.75;;;16.78;
46015;BME280;36844;51.898;-0.874;2024-03-23T06:12:40;100119.72;;;16.69;
46015;BME280;36844;51.898;-0.874;2024-03-23T06:15:06;100123.56;;;16.72;
46015;BME280;36844;51.898;-0.874;2024-03-23T06:17:36;100110.13;;;16.65;
46015;BME280;36844;51.898;-0.874;2024-03-23T06:20:01;100122.81;;;16.68;
46015;BME280;36844;51.898;-0.874;2024-03-23T06:22:26;100115.50;;;16.65;
46015;BME280;36844;51.898;-0.874;2024-03-23T06:24:52;100123.19;;;16.70;
46015;BME280;36844;51.898;-0.874;2024-03-23T06:27:17;100123.22;;;16.66;
46015;BME280;36844;51.898;-0.874;2024-03-23T06:29:42;100117.44;;;16.68;
46015;BME280;36844;51.898;-0.874;2024-03-23T06:32:08;100122.81;;;16.64;
46015;BME280;36844;51.898;-0.874;2024-03-23T06:34:33;100096.81;;;16.47;
46015;BME280;36844;51.898;-0.874;2024-03-23T06:36:58;100138.16;;;16.71;
46015;BME280;36844;51.898;-0.874;2024-03-23T06:39:24;100122.81;;;16.64;
46015;BME280;36844;51.898;-0.874;2024-03-23T06:41:53;100125.13;;;16.66;
46015;BME280;36844;51.898;-0.874;2024-03-23T06:44:19;100118.25;;;16.58;
46015;BME280;36844;51.898;-0.874;2024-03-23T06:46:45;100120.13;;;16.68;
46015;BME280;36844;51.898;-0.874;2024-03-23T06:49:10;100084.50;;;16.50;
46015;BME280;36844;51.898;-0.874;2024-03-23T06:51:36;100105.91;;;16.67;
46015;BME280;36844;51.898;-0.874;2024-03-23T06:54:03;100088.31;;;16.56;
46015;BME280;36844;51.898;-0.874;2024-03-23T06:56:28;100100.56;;;16.64;
46015;BME280;36844;51.898;-0.874;2024-03-23T06:58:54;100087.91;;;16.57;
46015;BME280;36844;51.898;-0.874;2024-03-23T07:01:19;100106.66;;;16.71;
46015;BME280;36844;51.898;-0.874;2024-03-23T07:03:44;100074.44;;;16.61;
46015;BME280;36844;51.898;-0.874;2024-03-23T07:06:10;100095.50;;;16.73;
46015;BME280;36844;51.898;-0.874;2024-03-23T07:08:35;100097.38;;;16.76;
46015;BME280;36844;51.898;-0.874;2024-03-23T07:11:01;100088.19;;;16.73;
46015;BME280;36844;51.898;-0.874;2024-03-23T07:13:27;100086.66;;;16.72;
46015;BME280;36844;51.898;-0.874;2024-03-23T07:15:53;100075.56;;;16.67;
46015;BME280;36844;51.898;-0.874;2024-03-23T07:18:20;100083.13;;;16.83;
46015;BME280;36844;51.898;-0.874;2024-03-23T07:20:55;100086.97;;;16.85;
46015;BME280;36844;51.898;-0.874;2024-03-23T07:23:24;100067.44;;;16.77;
46015;BME280;36844;51.898;-0.874;2024-03-23T07:28:22;100047.91;;;16.70;
46015;BME280;36844;51.898;-0.874;2024-03-23T07:30:47;100079.63;;;16.93;
46015;BME280;36844;51.898;-0.874;2024-03-23T07:33:12;100071.84;;;17.02;
46015;BME280;36844;51.898;-0.874;2024-03-23T07:35:38;100074.53;;;17.02;
46015;BME280;36844;51.898;-0.874;2024-03-23T07:38:03;100059.19;;;16.99;
46015;BME280;36844;51.898;-0.874;2024-03-23T07:40:30;100064.19;;;17.00;
46015;BME280;36844;51.898;-0.874;2024-03-23T07:42:56;100079.41;;;17.17;
46015;BME280;36844;51.898;-0.874;2024-03-23T07:45:21;100074.81;;;17.14;
46015;BME280;36844;51.898;-0.874;2024-03-23T07:47:46;100069.78;;;17.20;
46015;BME280;36844;51.898;-0.874;2024-03-23T07:50:11;100062.88;;;17.19;
46015;BME280;36844;51.898;-0.874;2024-03-23T07:52:37;100070.78;;;17.33;
46015;BME280;36844;51.898;-0.874;2024-03-23T07:55:02;100063.88;;;17.35;
46015;BME280;36844;51.898;-0.874;2024-03-23T07:57:28;100048.09;;;17.34;
46015;BME280;36844;51.898;-0.874;2024-03-23T07:59:53;100054.22;;;17.38;
46015;BME280;36844;51.898;-0.874;2024-03-23T08:02:18;100048.81;;;17.41;
46015;BME280;36844;51.898;-0.874;2024-03-23T08:04:44;100044.16;;;17.45;
46015;BME280;36844;51.898;-0.874;2024-03-23T08:07:09;100021.50;;;17.43;
46015;BME280;36844;51.898;-0.874;2024-03-23T08:09:34;100024.44;;;17.52;
46015;BME280;36844;51.898;-0.874;2024-03-23T08:11:59;100032.47;;;17.55;
46015;BME280;36844;51.898;-0.874;2024-03-23T08:14:25;100047.03;;;17.65;
46015;BME280;36844;51.898;-0.874;2024-03-23T08:16:50;100039.31;;;17.63;
46015;BME280;36844;51.898;-0.874;2024-03-23T08:19:16;100028.59;;;17.60;
46015;BME280;36844;51.898;-0.874;2024-03-23T08:21:41;100052.28;;;17.75;
46015;BME280;36844;51.898;-0.874;2024-03-23T08:24:07;100038.03;;;17.75;
46015;BME280;36844;51.898;-0.874;2024-03-23T08:26:33;100046.78;;;17.83;
46015;BME280;36844;51.898;-0.874;2024-03-23T08:28:58;100034.25;;;17.72;
46015;BME280;36844;51.898;-0.874;2024-03-23T08:31:23;100051.03;;;17.84;
46015;BME280;36844;51.898;-0.874;2024-03-23T08:33:48;100040.25;;;17.84;
46015;BME280;36844;51.898;-0.874;2024-03-23T08:36:14;100011.09;;;17.75;
46015;BME280;36844;51.898;-0.874;2024-03-23T08:38:39;100054.72;;;17.97;
46015;BME280;36844;51.898;-0.874;2024-03-23T08:41:10;100034.00;;;17.90;
46015;BME280;36844;51.898;-0.874;2024-03-23T08:43:36;100037.41;;;17.94;
46015;BME280;36844;51.898;-0.874;2024-03-23T08:46:09;100053.84;;;18.03;
46015;BME280;36844;51.898;-0.874;2024-03-23T08:48:36;100049.69;;;17.99;
46015;BME280;36844;51.898;-0.874;2024-03-23T08:51:08;100033.94;;;17.97;
46015;BME280;36844;51.898;-0.874;2024-03-23T08:53:35;100036.22;;;17.99;
46015;BME280;36844;51.898;-0.874;2024-03-23T08:56:00;100043.06;;;18.03;
46015;BME280;36844;51.898;-0.874;2024-03-23T08:58:27;100041.16;;;18.04;
46015;BME280;36844;51.898;-0.874;2024-03-23T09:00:54;100052.53;;;18.15;
46015;BME280;36844;51.898;-0.874;2024-03-23T09:03:22;100024.25;;;18.00;
46015;BME280;36844;51.898;-0.874;2024-03-23T09:05:47;100042.88;;;18.17;
46015;BME280;36844;51.898;-0.874;2024-03-23T09:08:12;100026.41;;;18.12;
46015;BME280;36844;51.898;-0.874;2024-03-23T09:10:41;100041.34;;;18.20;
46015;BME280;36844;51.898;-0.874;2024-03-23T09:13:07;100032.84;;;18.18;
46015;BME280;36844;51.898;-0.874;2024-03-23T09:15:34;100036.72;;;18.20;
46015;BME280;36844;51.898;-0.874;2024-03-23T09:17:59;100021.03;;;18.12;
46015;BME280;36844;51.898;-0.874;2024-03-23T09:20:25;100027.84;;;18.20;
46015;BME280;36844;51.898;-0.874;2024-03-23T09:22:51;100023.25;;;18.20;
46015;BME280;36844;51.898;-0.874;2024-03-23T09:25:16;100027.75;;;18.27;
46015;BME280;36844;51.898;-0.874;2024-03-23T09:27:41;100031.53;;;18.29;
46015;BME280;36844;51.898;-0.874;2024-03-23T09:30:07;100027.97;;;18.36;
46015;BME280;36844;51.898;-0.874;2024-03-23T09:32:32;100008.44;;;18.28;
46015;BME280;36844;51.898;-0.874;2024-03-23T09:34:57;99990.41;;;18.25;
46015;BME280;36844;51.898;-0.874;2024-03-23T09:37:23;100020.94;;;18.45;
46015;BME280;36844;51.898;-0.874;2024-03-23T09:39:48;100009.00;;;18.43;
46015;BME280;36844;51.898;-0.874;2024-03-23T09:42:13;100003.22;;;18.44;
46015;BME280;36844;51.898;-0.874;2024-03-23T09:44:40;100000.44;;;18.48;
46015;BME280;36844;51.898;-0.874;2024-03-23T09:47:05;100005.69;;;18.58;
46015;BME280;36844;51.898;-0.874;2024-03-23T09:49:31;100005.22;;;18.63;
46015;BME280;36844;51.898;-0.874;2024-03-23T09:51:57;99978.00;;;18.54;
46015;BME280;36844;51.898;-0.874;2024-03-23T09:54:23;99990.22;;;18.62;
46015;BME280;36844;51.898;-0.874;2024-03-23T09:56:48;99996.31;;;18.66;
46015;BME280;36844;51.898;-0.874;2024-03-23T09:59:14;99992.03;;;18.69;
46015;BME280;36844;51.898;-0.874;2024-03-23T10:01:39;99988.16;;;18.70;
46015;BME280;36844;51.898;-0.874;2024-03-23T10:04:05;99995.75;;;18.75;
46015;BME280;36844;51.898;-0.874;2024-03-23T10:06:30;100001.84;;;18.79;
46015;BME280;36844;51.898;-0.874;2024-03-23T10:08:55;99980.47;;;18.68;
46015;BME280;36844;51.898;-0.874;2024-03-23T10:11:21;100009.38;;;18.91;
46015;BME280;36844;51.898;-0.874;2024-03-23T10:13:47;99994.75;;;18.89;
46015;BME280;36844;51.898;-0.874;2024-03-23T10:16:21;99985.09;;;18.91;
46015;BME280;36844;51.898;-0.874;2024-03-23T10:18:47;99990.78;;;18.97;
46015;BME280;36844;51.898;-0.874;2024-03-23T10:21:14;99980.50;;;18.88;
46015;BME280;36844;51.898;-0.874;2024-03-23T10:23:41;99982.38;;;18.91;
46015;BME280;36844;51.898;-0.874;2024-03-23T10:26:21;100000.72;;;19.00;
46015;BME280;36844;51.898;-0.874;2024-03-23T10:29:05;99978.56;;;18.89;
46015;BME280;36844;51.898;-0.874;2024-03-23T10:31:33;99972.19;;;18.99;
46015;BME280;36844;51.898;-0.874;2024-03-23T10:34:03;99972.25;;;18.95;
46015;BME280;36844;51.898;-0.874;2024-03-23T10:36:29;99959.91;;;18.98;
46015;BME280;36844;51.898;-0.874;2024-03-23T10:38:59;99961.41;;;18.99;
46015;BME280;36844;51.898;-0.874;2024-03-23T10:41:31;99944.91;;;18.97;
46015;BME280;36844;51.898;-0.874;2024-03-23T10:43:57;99963.22;;;19.05;
46015;BME280;36844;51.898;-0.874;2024-03-23T10:46:23;99958.19;;;19.07;
46015;BME280;36844;51.898;-0.874;2024-03-23T10:48:48;99943.28;;;18.99;
46015;BME280;36844;51.898;-0.874;2024-03-23T10:51:14;99940.13;;;19.04;
46015;BME280;36844;51.898;-0.874;2024-03-23T10:53:39;99943.97;;;19.03;
46015;BME280;36844;51.898;-0.874;2024-03-23T10:56:05;99935.19;;;18.99;
46015;BME280;36844;51.898;-0.874;2024-03-23T10:58:44;99932.41;;;19.03;
46015;BME280;36844;51.898;-0.874;2024-03-23T11:01:11;99929.66;;;19.06;
46015;BME280;36844;51.898;-0.874;2024-03-23T11:03:38;99947.25;;;19.14;
46015;BME280;36844;51.898;-0.874;2024-03-23T11:06:05;99959.56;;;19.15;
46015;BME280;36844;51.898;-0.874;2024-03-23T11:08:38;99941.63;;;19.05;
46015;BME280;36844;51.898;-0.874;2024-03-23T11:11:20;99943.16;;;19.06;
46015;BME280;36844;51.898;-0.874;2024-03-23T11:13:50;99956.50;;;19.13;
46015;BME280;36844;51.898;-0.874;2024-03-23T11:16:18;99947.25;;;19.14;
46015;BME280;36844;51.898;-0.874;2024-03-23T11:18:46;99937.28;;;19.11;
46015;BME280;36844;51.898;-0.874;2024-03-23T11:24:15;99929.25;;;19.08;
46015;BME280;36844;51.898;-0.874;2024-03-23T11:26:40;99935.75;;;19.10;
46015;BME280;36844;51.898;-0.874;2024-03-23T11:29:13;99923.94;;;19.04;
46015;BME280;36844;51.898;-0.874;2024-03-23T11:31:48;99909.66;;;19.04;
46015;BME280;36844;51.898;-0.874;2024-03-23T11:34:17;99894.72;;;18.99;
46015;BME280;36844;51.898;-0.874;2024-03-23T11:36:44;99911.06;;;19.12;
46015;BME280;36844;51.898;-0.874;2024-03-23T11:39:19;99913.00;;;19.11;
46015;BME280;36844;51.898;-0.874;2024-03-23T11:41:56;99891.63;;;19.01;
46015;BME280;36844;51.898;-0.874;2024-03-23T11:44:23;99901.81;;;19.09;
46015;BME280;36844;51.898;-0.874;2024-03-23T11:46:49;99906.06;;;19.10;
46015;BME280;36844;51.898;-0.874;2024-03-23T11:49:21;99900.34;;;19.08;
46015;BME280;36844;51.898;-0.874;2024-03-23T11:51:50;99904.97;;;19.08;
46015;BME280;36844;51.898;-0.874;2024-03-23T11:54:16;99904.19;;;19.07;
46015;BME280;36844;51.898;-0.874;2024-03-23T11:57:03;99918.09;;;19.06;
46015;BME280;36844;51.898;-0.874;2024-03-23T11:59:31;99914.84;;;18.95;
46015;BME280;36844;51.898;-0.874;2024-03-23T12:01:56;99924.41;;;18.99;
46015;BME280;36844;51.898;-0.874;2024-03-23T12:04:28;99916.22;;;19.03;
46015;BME280;36844;51.898;-0.874;2024-03-23T12:07:14;99899.09;;;18.93;
46015;BME280;36844;51.898;-0.874;2024-03-23T12:09:41;99902.09;;;18.95;
46015;BME280;36844;51.898;-0.874;2024-03-23T12:12:24;99894.84;;;18.92;
46015;BME280;36844;51.898;-0.874;2024-03-23T12:15:09;99899.09;;;18.93;
46015;BME280;36844;51.898;-0.874;2024-03-23T12:17:35;99900.53;;;18.98;
46015;BME280;36844;51.898;-0.874;2024-03-23T12:20:01;99896.38;;;18.93;
46015;BME280;36844;51.898;-0.874;2024-03-23T12:22:26;99889.81;;;18.94;
46015;BME280;36844;51.898;-0.874;2024-03-23T12:24:52;99890.16;;;18.96;
46015;BME280;36844;51.898;-0.874;2024-03-23T12:27:17;99893.00;;;18.89;
46015;BME280;36844;51.898;-0.874;2024-03-23T12:29:43;99910.69;;;18.90;
46015;BME280;36844;51.898;-0.874;2024-03-23T12:32:10;99906.84;;;18.91;
46015;BME280;36844;51.898;-0.874;2024-03-23T12:34:36;99892.28;;;18.85;
46015;BME280;36844;51.898;-0.874;2024-03-23T12:37:01;99898.81;;;18.88;
46015;BME280;36844;51.898;-0.874;2024-03-23T12:39:27;99908.47;;;18.85;
46015;BME280;36844;51.898;-0.874;2024-03-23T12:41:52;99898.50;;;18.82;
46015;BME280;36844;51.898;-0.874;2024-03-23T12:44:20;99906.56;;;18.86;
46015;BME280;36844;51.898;-0.874;2024-03-23T12:46:46;99902.41;;;18.81;
46015;BME280;36844;51.898;-0.874;2024-03-23T12:49:11;99882.44;;;18.75;
46015;BME280;36844;51.898;-0.874;2024-03-23T12:51:37;99898.81;;;18.88;
46015;BME280;36844;51.898;-0.874;2024-03-23T12:54:02;99880.84;;;18.81;
46015;BME280;36844;51.898;-0.874;2024-03-23T12:56:28;99866.97;;;18.79;
46015;BME280;36844;51.898;-0.874;2024-03-23T12:58:54;99861.50;;;18.83;
46015;BME280;36844;51.898;-0.874;2024-03-23T13:01:20;99859.25;;;18.81;
46015;BME280;36844;51.898;-0.874;2024-03-23T13:03:50;99845.44;;;18.75;
46015;BME280;36844;51.898;-0.874;2024-03-23T13:06:16;99857.22;;;18.85;
46015;BME280;36844;51.898;-0.874;2024-03-23T13:08:46;99856.09;;;18.83;
46015;BME280;36844;51.898;-0.874;2024-03-23T13:11:12;99846.50;;;18.82;
46015;BME280;36844;51.898;-0.874;2024-03-23T13:13:39;99859.56;;;18.83;
46015;BME280;36844;51.898;-0.874;2024-03-23T13:16:05;99845.44;;;18.75;
46015;BME280;36844;51.898;-0.874;2024-03-23T13:18:31;99853.84;;;18.81;
46015;BME280;36844;51.898;-0.874;2024-03-23T13:20:56;99857.63;;;18.84;
46015;BME280;36844;51.898;-0.874;2024-03-23T13:23:22;99866.13;;;18.82;
46015;BME280;36844;51.898;-0.874;2024-03-23T13:25:51;99851.53;;;18.80;
46015;BME280;36844;51.898;-0.874;2024-03-23T13:28:18;99859.91;;;18.85;
46015;BME280;36844;51.898;-0.874;2024-03-23T13:30:53;99848.50;;;18.77;
46015;BME280;36844;51.898;-0.874;2024-03-23T13:33:19;99861.09;;;18.84;
46015;BME280;36844;51.898;-0.874;2024-03-23T13:35:51;99844.53;;;18.82;
46015;BME280;36844;51.898;-0.874;2024-03-23T13:38:17;99845.31;;;18.83;
46015;BME280;36844;51.898;-0.874;2024-03-23T13:40:56;99838.41;;;18.82;
46015;BME280;36844;51.898;-0.874;2024-03-23T13:43:22;99824.66;;;18.76;
46015;BME280;36844;51.898;-0.874;2024-03-23T13:45:50;99825.81;;;18.75;
46015;BME280;36844;51.898;-0.874;2024-03-23T13:48:16;99800.28;;;18.60;
46015;BME280;36844;51.898;-0.874;2024-03-23T13:50:43;99826.50;;;18.79;
46015;BME280;36844;51.898;-0.874;2024-03-23T13:53:08;99822.28;;;18.78;
46015;BME280;36844;51.898;-0.874;2024-03-23T13:55:34;99817.25;;;18.80;
46015;BME280;36844;51.898;-0.874;2024-03-23T13:57:59;99811.63;;;18.71;
46015;BME280;36844;51.898;-0.874;2024-03-23T14:00:24;99810.00;;;18.77;
46015;BME280;36844;51.898;-0.874;2024-03-23T14:02:50;99791.66;;;18.68;
46015;BME280;36844;51.898;-0.874;2024-03-23T14:05:15;99808.91;;;18.71;
46015;BME280;36844;51.898;-0.874;2024-03-23T14:07:41;99807.38;;;18.73;
46015;BME280;36844;51.898;-0.874;2024-03-23T14:10:06;99807.84;;;18.68;
46015;BME280;36844;51.898;-0.874;2024-03-23T14:12:32;99808.22;;;18.67;
46015;BME280;36844;51.898;-0.874;2024-03-23T14:14:57;99801.75;;;18.64;
46015;BME280;36844;51.898;-0.874;2024-03-23T14:17:23;99802.66;;;18.58;
46015;BME280;36844;51.898;-0.874;2024-03-23T14:19:48;99814.13;;;18.62;
46015;BME280;36844;51.898;-0.874;2024-03-23T14:22:15;99834.88;;;18.65;
46015;BME280;36844;51.898;-0.874;2024-03-23T14:24:41;99837.91;;;18.67;
46015;BME280;36844;51.898;-0.874;2024-03-23T14:27:07;99839.44;;;18.68;
46015;BME280;36844;51.898;-0.874;2024-03-23T14:29:32;99828.50;;;18.55;